Coeymans Hollow, NY (12046)

9:37 PM EDT on September 03, 2015 (GMT -0400)
Ravena | | Change Station
CLOSE
Current Station
Personal Weather Station
Location: Ravena, NY
Elevation: 171 ft
Nearby Weather Stations

Elev 171 ft 42.49 °N, 73.82 °W | Updated 24 seconds ago

Partly Cloudy
Partly Cloudy
74.7 °F
Feels Like 74 °F
N
7.6
Wind Variable Wind from SW
Gusts 7.6 mph

Today
High -- | Low -- °F
--% Chance of Precip.
Yesterday
High -- | Low -- °F
Precip. -- in
6:22 AM 7:26 PM
Waning Gibbous, 65% visible
Pressure 29.91 in
Visibility 10.0 miles
Clouds Few 8000 ft
Few 18000 ft
Scattered Clouds 27000 ft
Heat Index 74 °F
Dew Point 70 °F
Humidity 85%
Rainfall 0.04 in
Snow Depth Not available.
UV 0 out of 12
Pollen 8.20 out of 12
Air Quality Not available.
Flu Activity Not available.
METAR KALB 040051Z 36006KT 10SM FEW080 FEW180 SCT270 23/21 A2992 RMK AO2 SLP129 T02330206
Pressure 29.91 in
Visibility 10.0 miles
Clouds Few 8000 ft
Few 18000 ft
Scattered Clouds 27000 ft
Heat Index 74 °F
Dew Point 70 °F
Humidity 85%
Rainfall 0.04 in
Snow Depth Not available.
UV 0 out of 12
Pollen 8.20 out of 12
Air Quality Not available.
Flu Activity Not available.
METAR KALB 040051Z 36006KT 10SM FEW080 FEW180 SCT270 23/21 A2992 RMK AO2 SLP129 T02330206

10-Day Weather Forecast

×

Almanac

Astronomy

Sep. 03, 2015 Rise Set
Actual Time
Civil Twilight
Nautical Twilight
Astronomical Twilight
Moon
Length of Visible Light
Length of Day
Tomorrow will be .
, % of the Moon is Illuminated

Today's Extremes

State Highs State Lows

Community

WunderPhotos

Upload Photos

1,852,086 photos uploaded!

WunderBlogs® & News

Nearby

Air Quality

  Air Quality AQ Index Pollutant
Not available.

Snow Depth

Station Depth Elevation

Earthquake Activity

City Distance Mag. Time & Date
Minimum magnitude displayed is 2.5.

Coastal Water Temperatures

Place Temperature

Stations

Nearby Weather Stations

Station Location Temp. Windchill Dew Point Humidity Wind Precip. Elev Updated Type